createdAt,value
2022-10-18T00:01:03.677Z,103165.56
2022-10-18T00:03:31.298Z,103152.34
2022-10-18T00:06:00.919Z,103144.53
2022-10-18T00:08:29.119Z,103134.63
2022-10-18T00:10:57.109Z,103137.16
2022-10-18T00:13:25.250Z,103134.88
2022-10-18T00:15:58.580Z,103149.16
2022-10-18T00:18:26.522Z,103143.34
2022-10-18T00:21:02.443Z,103149.72
2022-10-18T00:23:31.606Z,103154.38
2022-10-18T00:26:04.436Z,103157.34
2022-10-18T00:28:33.162Z,103159.03
2022-10-18T00:31:31.171Z,103166.88
2022-10-18T00:34:14.641Z,103158.94
2022-10-18T00:36:43.441Z,103165.19
2022-10-18T00:39:17.265Z,103159.88
2022-10-18T00:41:45.696Z,103163.38
2022-10-18T00:44:13.174Z,103167.72
2022-10-18T00:46:46.179Z,103152.91
2022-10-18T00:49:18.438Z,103155.44
2022-10-18T00:51:53.877Z,103154.59
2022-10-18T00:54:23.258Z,103148.25
2022-10-18T00:56:51.263Z,103150.69
2022-10-18T00:59:20.305Z,103140.22
2022-10-18T01:01:50.973Z,103145.03
2022-10-18T01:04:20.375Z,103150.84
2022-10-18T01:07:20.017Z,103135.47
2022-10-18T01:09:57.090Z,103143.06
2022-10-18T01:12:56.328Z,103135.47
2022-10-18T01:15:28.870Z,103136.94
2022-10-18T01:18:13.416Z,103143.06
2022-10-18T01:20:58.963Z,103135.03
2022-10-18T01:23:40.092Z,103132.97
2022-10-18T01:26:28.976Z,103133.72
2022-10-18T01:29:14.408Z,103123.97
2022-10-18T01:31:48.290Z,103127.59
2022-10-18T01:34:18.899Z,103135.63
2022-10-18T01:36:54.499Z,103135.41
2022-10-18T01:39:33.970Z,103118.69
2022-10-18T01:42:06.502Z,103127.38
2022-10-18T01:44:35.375Z,103126.06
2022-10-18T01:47:07.345Z,103120.78
2022-10-18T01:49:34.830Z,103112.84
2022-10-18T01:52:02.433Z,103108.53
2022-10-18T01:54:48.679Z,103114.66
2022-10-18T01:57:26.915Z,103116.56
2022-10-18T02:00:24.174Z,103121.84
2022-10-18T02:03:02.419Z,103117.41
2022-10-18T02:05:40.968Z,103113.19
2022-10-18T02:08:27.693Z,103115.22
2022-10-18T02:11:01.196Z,103115.22
2022-10-18T02:13:34.051Z,103111.47
2022-10-18T02:16:27.368Z,103124.47
2022-10-18T02:19:27.066Z,103128.91
2022-10-18T02:21:56.891Z,103125.63
2022-10-18T02:24:27.939Z,103124.19
2022-10-18T02:26:55.390Z,103128.63
2022-10-18T02:29:23.369Z,103135.94
2022-10-18T02:31:57.106Z,103134.34
2022-10-18T02:34:28.371Z,103121.59
2022-10-18T02:36:59.854Z,103115.69
2022-10-18T02:39:33.150Z,103112.31
2022-10-18T02:42:00.772Z,103104.13
2022-10-18T02:44:28.213Z,103107.72
2022-10-18T02:46:56.066Z,103104.59
2022-10-18T02:49:23.543Z,103106.28
2022-10-18T02:51:51.097Z,103096.13
2022-10-18T02:54:18.492Z,103101.22
2022-10-18T02:56:46.347Z,103099.50
2022-10-18T02:59:14.143Z,103086.97
2022-10-18T03:01:42.454Z,103094.66
2022-10-18T03:04:10.434Z,103088.16
2022-10-18T03:06:38.191Z,103098.34
2022-10-18T03:09:07.202Z,103098.16
2022-10-18T03:11:35.960Z,103100.47
2022-10-18T03:14:03.547Z,103092.56
2022-10-18T03:16:31.780Z,103090.06
2022-10-18T03:18:59.454Z,103079.59
2022-10-18T03:21:27.827Z,103077.91
2022-10-18T03:23:55.381Z,103084.03
2022-10-18T03:26:22.874Z,103071.88
2022-10-18T03:28:53.799Z,103072.41
2022-10-18T03:31:22.374Z,103075.75
2022-10-18T03:33:49.913Z,103074.81
2022-10-18T03:36:18.847Z,103074.06
2022-10-18T03:41:15.655Z,103082.00
2022-10-18T03:43:45.511Z,103076.28
2022-10-18T03:46:13.624Z,103057.75
2022-10-18T03:48:41.162Z,103060.38
2022-10-18T03:51:10.034Z,103051.41
2022-10-18T03:53:39.004Z,103037.41
2022-10-18T03:56:06.795Z,103044.19
2022-10-18T04:01:09.699Z,103047.78
2022-10-18T04:03:37.231Z,103047.84
2022-10-18T04:06:04.880Z,103043.81
2022-10-18T04:08:32.592Z,103039.88
2022-10-18T04:11:00.051Z,103037.31
2022-10-18T04:13:27.605Z,103038.31
2022-10-18T04:15:55.090Z,103041.09
2022-10-18T04:18:24.531Z,103034.19
2022-10-18T04:20:52.347Z,103035.50
2022-10-18T04:23:19.902Z,103038.53
2022-10-18T04:25:49.284Z,103036.69
2022-10-18T04:28:16.830Z,103034.69
2022-10-18T04:30:44.526Z,103045.81
2022-10-18T04:33:12.590Z,103035.09
2022-10-18T04:35:40.154Z,103044.53
2022-10-18T04:38:10.869Z,103041.69
2022-10-18T04:40:39.236Z,103049.84
2022-10-18T04:43:07.914Z,103041.31
2022-10-18T04:45:37.709Z,103053.16
2022-10-18T04:48:06.010Z,103055.94
2022-10-18T04:50:33.858Z,103047.84
2022-10-18T04:53:12.327Z,103051.59
2022-10-18T04:55:39.826Z,103050.88
2022-10-18T04:58:07.268Z,103048.88
2022-10-18T05:00:39.832Z,103052.34
2022-10-18T05:03:08.953Z,103055.00
2022-10-18T05:05:49.563Z,103056.66
2022-10-18T05:08:24.291Z,103075.94
2022-10-18T05:10:52.971Z,103075.38
2022-10-18T05:13:20.445Z,103076.31
2022-10-18T05:15:52.039Z,103084.53
2022-10-18T05:18:19.506Z,103080.22
2022-10-18T05:20:47.382Z,103075.03
2022-10-18T05:23:16.452Z,103080.34
2022-10-18T05:25:44.998Z,103069.59
2022-10-18T05:28:34.475Z,103073.75
2022-10-18T05:31:12.062Z,103078.75
2022-10-18T05:33:41.216Z,103075.56
2022-10-18T05:36:11.532Z,103081.25
2022-10-18T05:38:43.215Z,103057.56
2022-10-18T05:41:13.079Z,103075.31
2022-10-18T05:43:44.263Z,103062.06
2022-10-18T05:46:15.560Z,103066.53
2022-10-18T05:48:52.760Z,103073.22
2022-10-18T05:51:20.294Z,103062.44
2022-10-18T05:53:48.666Z,103063.47
2022-10-18T05:56:16.497Z,103064.19
2022-10-18T05:58:52.927Z,103057.16
2022-10-18T06:01:23.516Z,103054.94
2022-10-18T06:03:51.736Z,103049.91
2022-10-18T06:06:19.557Z,103050.63
2022-10-18T06:08:50.160Z,103051.13
2022-10-18T06:11:22.857Z,103049.94
2022-10-18T06:13:51.985Z,103048.44
2022-10-18T06:16:22.853Z,103036.03
2022-10-18T06:18:54.528Z,103026.44
2022-10-18T06:21:24.766Z,103036.00
2022-10-18T06:23:55.082Z,103038.09
2022-10-18T06:26:24.411Z,103022.72
2022-10-18T06:28:53.089Z,103034.47
2022-10-18T06:34:56.656Z,103044.72
2022-10-18T06:37:24.335Z,103041.44
2022-10-18T06:40:27.734Z,103033.91
2022-10-18T06:43:19.948Z,103027.09
2022-10-18T06:46:03.661Z,103027.03
2022-10-18T06:48:49.896Z,103023.34
2022-10-18T06:51:19.552Z,103017.09
2022-10-18T06:54:13.022Z,103019.16
2022-10-18T06:56:42.054Z,103011.44
2022-10-18T06:59:26.351Z,103004.16
2022-10-18T07:02:55.569Z,103007.22
2022-10-18T07:55:32.360Z,102936.97
2022-10-18T07:58:01.553Z,102942.00
2022-10-18T08:00:29.037Z,102942.69
2022-10-18T08:02:57.695Z,102930.34
2022-10-18T08:05:27.100Z,102931.38
2022-10-18T08:07:54.996Z,102931.72
2022-10-18T08:10:24.495Z,102925.19
2022-10-18T08:12:53.992Z,102915.38
2022-10-18T08:15:25.164Z,102919.31
2022-10-18T08:17:54.740Z,102903.31
2022-10-18T08:20:31.283Z,102911.91
2022-10-18T08:23:00.629Z,102903.59
2022-10-18T08:25:29.344Z,102876.81
2022-10-18T08:27:57.380Z,102883.56
2022-10-18T08:30:25.098Z,102884.06
2022-10-18T08:32:55.702Z,102866.31
2022-10-18T08:35:23.218Z,102867.69
2022-10-18T08:37:51.503Z,102863.06
2022-10-18T08:40:19.516Z,102868.84
2022-10-18T08:43:27.553Z,102848.44
2022-10-18T08:45:55.280Z,102858.56
2022-10-18T08:48:34.999Z,102857.63
2022-10-18T08:51:14.055Z,102854.06
2022-10-18T08:53:54.795Z,102853.03
2022-10-18T08:56:30.591Z,102840.66
2022-10-18T08:58:58.020Z,102819.28
2022-10-18T09:01:28.484Z,102834.50
2022-10-18T09:04:08.061Z,102829.47
2022-10-18T09:06:56.364Z,102838.19
2022-10-18T09:09:39.476Z,102827.78
2022-10-18T09:12:27.481Z,102824.28
2022-10-18T09:15:35.493Z,102817.13
2022-10-18T09:18:38.420Z,102817.47
2022-10-18T09:21:19.447Z,102807.72
2022-10-18T09:24:02.035Z,102802.59
2022-10-18T09:26:41.021Z,102798.91
2022-10-18T09:29:31.655Z,102804.69
2022-10-18T09:32:11.275Z,102797.13
2022-10-18T09:34:56.343Z,102790.41
2022-10-18T09:37:25.949Z,102779.72
2022-10-18T09:40:04.313Z,102782.28
2022-10-18T09:42:39.617Z,102785.47
2022-10-18T09:45:24.215Z,102773.41
2022-10-18T09:48:02.604Z,102783.25
2022-10-18T09:50:38.723Z,102775.81
2022-10-18T09:53:23.784Z,102763.28
2022-10-18T09:56:03.055Z,102771.13
2022-10-18T09:58:44.348Z,102769.66
2022-10-18T10:01:15.758Z,102763.13
2022-10-18T10:03:43.432Z,102752.78
2022-10-18T10:06:21.097Z,102750.22
2022-10-18T10:08:54.230Z,102755.09
2022-10-18T10:11:51.802Z,102749.81
2022-10-18T10:14:26.724Z,102743.69
2022-10-18T10:17:02.821Z,102742.88
2022-10-18T10:19:35.052Z,102736.84
2022-10-18T10:22:09.346Z,102728.59
2022-10-18T10:24:57.758Z,102717.53
2022-10-18T10:27:43.553Z,102718.69
2022-10-18T10:30:38.838Z,102723.91
2022-10-18T10:33:07.228Z,102712.53
2022-10-18T10:35:55.818Z,102710.53
2022-10-18T10:38:26.022Z,102719.13
2022-10-18T10:40:54.241Z,102702.59
2022-10-18T10:43:40.306Z,102700.13
2022-10-18T10:46:12.420Z,102699.66
2022-10-18T10:49:39.734Z,102703.97
2022-10-18T10:52:15.663Z,102697.97
2022-10-18T10:54:55.757Z,102697.84
2022-10-18T10:57:29.515Z,102694.50
2022-10-18T11:00:00.293Z,102677.81
2022-10-18T11:02:36.325Z,102687.25
2022-10-18T11:05:29.527Z,102676.34
2022-10-18T11:08:04.017Z,102684.78
2022-10-18T11:10:34.908Z,102679.50
2022-10-18T11:13:24.284Z,102675.84
2022-10-18T11:16:07.316Z,102664.72
2022-10-18T11:18:38.511Z,102656.22
2022-10-18T11:21:24.027Z,102659.94
2022-10-18T11:23:51.732Z,102655.81
2022-10-18T11:26:29.784Z,102654.41
2022-10-18T11:29:25.340Z,102647.97
2022-10-18T11:32:20.251Z,102651.06
2022-10-18T11:35:00.050Z,102642.56
2022-10-18T11:37:42.830Z,102640.28
2022-10-18T11:40:29.356Z,102645.69
2022-10-18T11:44:01.197Z,102636.53
2022-10-18T11:46:30.476Z,102630.94
2022-10-18T11:49:12.472Z,102641.09
2022-10-18T11:52:08.715Z,102632.41
2022-10-18T11:54:59.197Z,102627.84
2022-10-18T11:57:45.561Z,102629.25
2022-10-18T12:00:40.691Z,102629.88
2022-10-18T12:03:45.644Z,102616.78
2022-10-18T12:06:18.328Z,102614.50
2022-10-18T12:08:50.881Z,102606.59
2022-10-18T12:11:24.432Z,102608.44
2022-10-18T12:13:58.048Z,102609.31
2022-10-18T12:16:49.884Z,102604.78
2022-10-18T12:19:27.376Z,102605.41
2022-10-18T12:22:28.715Z,102600.84
2022-10-18T12:24:56.300Z,102598.75
2022-10-18T12:27:39.878Z,102590.06
2022-10-18T12:30:19.802Z,102602.72
2022-10-18T12:33:02.238Z,102597.31
2022-10-18T12:36:19.629Z,102594.22
2022-10-18T12:38:55.447Z,102593.38
2022-10-18T12:41:28.054Z,102585.94
2022-10-18T12:44:03.409Z,102575.97
2022-10-18T12:47:04.718Z,102586.78
2022-10-18T12:49:40.204Z,102594.63
2022-10-18T12:52:25.083Z,102590.66
2022-10-18T12:55:06.121Z,102587.16
2022-10-18T12:57:52.265Z,102573.88
2022-10-18T13:00:31.856Z,102587.09
2022-10-18T13:03:25.449Z,102574.44
2022-10-18T13:05:55.308Z,102570.69
2022-10-18T13:08:35.102Z,102574.41
2022-10-18T13:11:08.346Z,102575.19
2022-10-18T13:13:44.819Z,102568.78
2022-10-18T13:16:21.557Z,102575.59
2022-10-18T13:18:59.809Z,102565.63
2022-10-18T13:21:55.905Z,102560.84
2022-10-18T13:24:52.854Z,102559.19
2022-10-18T13:27:47.963Z,102560.81
2022-10-18T13:30:33.155Z,102537.19
2022-10-18T13:33:22.717Z,102542.19
2022-10-18T13:35:52.580Z,102531.41
2022-10-18T13:38:46.976Z,102522.69
2022-10-18T13:41:19.284Z,102519.31
2022-10-18T13:44:03.180Z,102519.50
2022-10-18T13:46:33.608Z,102515.50
2022-10-18T13:49:25.223Z,102509.28
2022-10-18T13:52:30.523Z,102506.91
2022-10-18T13:55:23.591Z,102507.47
2022-10-18T13:58:11.175Z,102499.13
2022-10-18T14:00:56.788Z,102483.53
2022-10-18T14:03:58.365Z,102481.22
2022-10-18T14:06:28.676Z,102475.34
2022-10-18T14:09:32.761Z,102473.59
2022-10-18T14:12:21.591Z,102467.97
2022-10-18T14:15:26.401Z,102466.91
2022-10-18T14:17:57.733Z,102477.63
2022-10-18T14:20:55.312Z,102469.50
2022-10-18T14:23:54.914Z,102464.47
2022-10-18T14:26:23.109Z,102474.31
2022-10-18T14:29:15.787Z,102471.56
2022-10-18T14:31:50.113Z,102474.81
2022-10-18T14:34:17.765Z,102474.75
2022-10-18T14:36:48.153Z,102470.50
2022-10-18T14:39:27.696Z,102461.81
2022-10-18T14:41:57.040Z,102465.28
2022-10-18T14:44:27.512Z,102460.47
2022-10-18T14:47:16.621Z,102464.75
2022-10-18T14:49:46.134Z,102466.50
2022-10-18T14:52:17.415Z,102465.41
2022-10-18T14:54:45.721Z,102466.34
2022-10-18T14:57:21.971Z,102465.06
2022-10-18T14:59:53.976Z,102462.50
2022-10-18T15:02:33.479Z,102463.72
2022-10-18T15:05:25.257Z,102456.41
2022-10-18T15:07:54.123Z,102446.63
2022-10-18T15:10:27.825Z,102438.31
2022-10-18T15:13:16.916Z,102445.06
2022-10-18T15:15:45.505Z,102443.13
2022-10-18T15:18:24.837Z,102432.31
2022-10-18T15:21:09.724Z,102426.50
2022-10-18T15:23:37.202Z,102436.75
2022-10-18T15:26:12.977Z,102427.25
2022-10-18T15:28:57.509Z,102426.75
2022-10-18T15:31:29.582Z,102423.47
2022-10-18T15:34:15.760Z,102416.63
2022-10-18T15:39:29.626Z,102404.59
2022-10-18T15:42:02.614Z,102406.63
2022-10-18T15:44:51.181Z,102401.00
2022-10-18T15:47:24.677Z,102397.41
2022-10-18T15:49:59.557Z,102395.75
2022-10-18T15:52:38.502Z,102381.41
2022-10-18T15:55:29.525Z,102381.78
2022-10-18T15:58:21.768Z,102386.31
2022-10-18T16:00:51.290Z,102367.44
2022-10-18T16:03:22.460Z,102370.50
2022-10-18T16:05:54.695Z,102384.72
2022-10-18T16:08:25.692Z,102387.28
2022-10-18T16:10:53.341Z,102377.31
2022-10-18T16:13:20.915Z,102389.22
2022-10-18T16:15:48.517Z,102384.59
2022-10-18T16:18:19.359Z,102379.78
2022-10-18T16:20:48.469Z,102381.13
2022-10-18T16:23:25.440Z,102372.84
2022-10-18T16:25:54.099Z,102373.03
2022-10-18T16:28:24.521Z,102375.59
2022-10-18T16:30:59.210Z,102368.59
2022-10-18T16:33:27.281Z,102367.28
2022-10-18T16:35:54.837Z,102367.63
2022-10-18T16:38:35.546Z,102364.50
2022-10-18T16:41:05.707Z,102353.50
2022-10-18T16:43:34.850Z,102354.69
2022-10-18T16:46:03.455Z,102349.31
2022-10-18T16:48:30.965Z,102335.16
2022-10-18T16:50:59.113Z,102333.28
2022-10-18T16:53:28.248Z,102326.31
2022-10-18T16:55:59.202Z,102321.31
2022-10-18T16:58:29.120Z,102315.13
2022-10-18T17:00:57.833Z,102310.59
2022-10-18T17:03:26.474Z,102313.09
2022-10-18T17:05:54.694Z,102304.25
2022-10-18T17:08:28.364Z,102284.72
2022-10-18T17:11:00.525Z,102291.91
2022-10-18T17:13:28.074Z,102296.69
2022-10-18T17:15:56.534Z,102289.50
2022-10-18T17:18:30.841Z,102300.84
2022-10-18T17:21:02.041Z,102287.47
2022-10-18T17:26:28.793Z,102281.13
2022-10-18T17:29:00.772Z,102277.44
2022-10-18T17:31:29.791Z,102270.41
2022-10-18T17:33:58.893Z,102270.41
2022-10-18T17:36:26.427Z,102262.97
2022-10-18T17:38:55.031Z,102273.09
2022-10-18T17:41:22.639Z,102263.41
2022-10-18T17:43:50.387Z,102262.41
2022-10-18T17:46:20.701Z,102252.34
2022-10-18T17:48:48.200Z,102250.34
2022-10-18T17:51:20.012Z,102252.63
2022-10-18T17:53:47.589Z,102258.63
2022-10-18T17:56:16.285Z,102258.28
2022-10-18T17:58:43.923Z,102245.06
2022-10-18T18:01:17.689Z,102254.59
2022-10-18T18:03:45.686Z,102252.56
2022-10-18T18:06:15.488Z,102251.56
2022-10-18T18:08:43.153Z,102236.13
2022-10-18T18:11:10.654Z,102232.44
2022-10-18T18:13:38.230Z,102238.63
2022-10-18T18:16:21.093Z,102236.25
2022-10-18T18:18:51.414Z,102235.03
2022-10-18T18:21:20.119Z,102222.28
2022-10-18T18:23:48.539Z,102214.09
2022-10-18T18:26:18.312Z,102218.25
2022-10-18T18:28:46.277Z,102214.56
2022-10-18T18:31:25.460Z,102216.88
2022-10-18T18:33:54.980Z,102212.13
2022-10-18T18:36:24.020Z,102210.09
2022-10-18T18:38:56.842Z,102210.09
2022-10-18T18:41:26.961Z,102202.06
2022-10-18T18:44:02.770Z,102202.91
2022-10-18T18:46:34.480Z,102198.38
2022-10-18T18:49:02.445Z,102190.00
2022-10-18T18:51:29.956Z,102189.59
2022-10-18T18:53:57.424Z,102186.31
2022-10-18T18:56:27.383Z,102185.91
2022-10-18T18:58:55.484Z,102189.06
2022-10-18T19:01:25.666Z,102187.22
2022-10-18T19:03:55.647Z,102172.16
2022-10-18T19:06:26.428Z,102169.50
2022-10-18T19:09:00.450Z,102172.34
2022-10-18T19:11:33.413Z,102157.13
2022-10-18T19:14:01.617Z,102157.59
2022-10-18T19:16:30.415Z,102151.41
2022-10-18T19:18:59.557Z,102147.72
2022-10-18T19:21:30.049Z,102142.19
2022-10-18T19:23:58.850Z,102147.34
2022-10-18T19:26:47.749Z,102144.25
2022-10-18T19:29:23.655Z,102131.72
2022-10-18T19:31:53.003Z,102137.19
2022-10-18T19:34:21.706Z,102121.97
2022-10-18T19:36:50.149Z,102127.75
2022-10-18T19:39:35.508Z,102120.16
2022-10-18T19:42:05.893Z,102116.28
2022-10-18T19:44:36.252Z,102114.63
2022-10-18T19:47:05.236Z,102111.94
2022-10-18T19:49:32.920Z,102114.63
2022-10-18T19:52:00.377Z,102112.97
2022-10-18T19:54:38.480Z,102099.50
2022-10-18T19:57:05.916Z,102102.63
2022-10-18T19:59:34.520Z,102103.00
2022-10-18T20:02:02.134Z,102091.84
2022-10-18T20:04:34.363Z,102096.72
2022-10-18T20:07:03.046Z,102096.09
2022-10-18T20:09:30.617Z,102089.25
2022-10-18T20:11:58.049Z,102093.16
2022-10-18T20:14:25.711Z,102075.81
2022-10-18T20:16:53.228Z,102085.06
2022-10-18T20:19:20.692Z,102078.03
2022-10-18T20:21:48.162Z,102052.75
2022-10-18T20:24:15.663Z,102077.59
2022-10-18T20:26:44.013Z,102073.09
2022-10-18T20:29:11.584Z,102071.84
2022-10-18T20:31:39.544Z,102064.22
2022-10-18T20:34:11.072Z,102059.53
2022-10-18T20:36:39.152Z,102056.19
2022-10-18T20:39:08.011Z,102050.03
2022-10-18T20:41:41.322Z,102047.53
2022-10-18T20:44:13.525Z,102042.19
2022-10-18T20:46:41.144Z,102029.00
2022-10-18T20:49:11.826Z,102014.72
2022-10-18T20:51:39.633Z,102021.56
2022-10-18T20:54:08.699Z,102022.75
2022-10-18T20:56:38.052Z,102024.78
2022-10-18T20:59:10.046Z,102013.63
2022-10-18T21:01:39.495Z,102010.94
2022-10-18T21:04:09.293Z,102011.59
2022-10-18T21:06:43.002Z,102003.75
2022-10-18T21:09:16.208Z,102005.59
2022-10-18T21:11:49.695Z,102003.09
2022-10-18T21:14:20.398Z,101993.66
2022-10-18T21:16:49.088Z,101996.75
2022-10-18T21:19:24.141Z,101997.97
2022-10-18T21:21:54.611Z,101996.31
2022-10-18T21:24:23.908Z,101989.31
2022-10-18T21:26:51.509Z,101993.81
2022-10-18T21:29:22.183Z,101994.66
2022-10-18T21:31:52.907Z,101994.66
2022-10-18T21:34:20.356Z,101996.31
2022-10-18T21:36:48.617Z,101997.97
2022-10-18T21:41:54.619Z,101990.88
2022-10-18T21:44:22.229Z,101987.13
2022-10-18T21:46:50.073Z,101992.84
2022-10-18T21:49:17.910Z,101980.91
2022-10-18T21:51:45.493Z,101984.97
2022-10-18T21:54:15.528Z,101983.66
2022-10-18T21:56:43.647Z,101984.06
2022-10-18T21:59:14.474Z,101971.06
2022-10-18T22:01:49.785Z,101971.63
2022-10-18T22:04:25.290Z,101974.47
2022-10-18T22:06:52.872Z,101976.72
2022-10-18T22:09:21.527Z,101972.38
2022-10-18T22:11:51.792Z,101969.06
2022-10-18T22:14:19.422Z,101960.97
2022-10-18T22:16:46.942Z,101964.09
2022-10-18T22:19:14.498Z,101963.47
2022-10-18T22:21:41.934Z,101964.25
2022-10-18T22:24:10.717Z,101958.69
2022-10-18T22:26:43.166Z,101972.28
2022-10-18T22:29:14.079Z,101965.69
2022-10-18T22:31:44.625Z,101962.34
2022-10-18T22:34:15.010Z,101961.06
2022-10-18T22:36:42.624Z,101952.44
2022-10-18T22:39:11.006Z,101953.69
2022-10-18T22:41:38.432Z,101947.53
2022-10-18T22:44:06.170Z,101945.84
2022-10-18T22:46:33.684Z,101945.03
2022-10-18T22:49:01.336Z,101952.44
2022-10-18T22:51:28.829Z,101950.94
2022-10-18T22:53:56.503Z,101957.31
2022-10-18T22:56:25.203Z,101951.13
2022-10-18T22:58:53.081Z,101949.84
2022-10-18T23:01:23.421Z,101944.91
2022-10-18T23:03:59.241Z,101948.56
2022-10-18T23:06:30.069Z,101942.94
2022-10-18T23:08:59.660Z,101943.97
2022-10-18T23:11:32.215Z,101932.84
2022-10-18T23:13:59.697Z,101928.03
2022-10-18T23:16:28.006Z,101932.75
2022-10-18T23:18:57.179Z,101929.44
2022-10-18T23:21:29.403Z,101925.94
2022-10-18T23:24:06.770Z,101924.47
2022-10-18T23:26:34.998Z,101915.81
2022-10-18T23:29:03.003Z,101914.81
2022-10-18T23:31:34.018Z,101901.16
2022-10-18T23:34:03.694Z,101907.34
2022-10-18T23:36:33.744Z,101900.78
2022-10-18T23:39:01.424Z,101897.28
2022-10-18T23:41:29.021Z,101894.16
2022-10-18T23:43:56.720Z,101882.22
2022-10-18T23:46:25.323Z,101894.81
2022-10-18T23:48:52.762Z,101889.41
2022-10-18T23:51:20.294Z,101885.72
2022-10-18T23:53:48.697Z,101872.91
2022-10-18T23:56:19.192Z,101869.22
2022-10-18T23:58:46.859Z,101869.88
